createdAt,value
2019-01-24T00:02:19.129Z,98578.00
2019-01-24T00:04:49.642Z,98581.00
2019-01-24T00:07:20.102Z,98594.00
2019-01-24T00:09:51.118Z,98595.00
2019-01-24T00:12:21.652Z,98590.00
2019-01-24T00:14:52.081Z,98597.00
2019-01-24T00:17:22.528Z,98596.00
2019-01-24T00:19:52.992Z,98594.00
2019-01-24T00:22:23.397Z,98594.00
2019-01-24T00:24:53.868Z,98596.00
2019-01-24T00:27:24.297Z,98596.00
2019-01-24T00:29:54.771Z,98588.00
2019-01-24T00:32:25.242Z,98599.00
2019-01-24T00:34:55.688Z,98593.00
2019-01-24T00:37:26.116Z,98600.00
2019-01-24T00:39:56.588Z,98601.00
2019-01-24T00:42:27.039Z,98606.00
2019-01-24T00:44:57.526Z,98607.00
2019-01-24T00:47:27.990Z,98602.00
2019-01-24T00:49:58.446Z,98606.00
2019-01-24T00:52:28.906Z,98609.00
2019-01-24T00:54:59.343Z,98609.00
2019-01-24T00:57:29.738Z,98609.00
2019-01-24T01:00:00.161Z,98608.00
2019-01-24T01:02:30.624Z,98610.00
2019-01-24T01:05:01.260Z,98610.00
2019-01-24T01:07:31.770Z,98609.00
2019-01-24T01:10:02.299Z,98609.00
2019-01-24T01:12:32.692Z,98608.00
2019-01-24T01:15:03.356Z,98618.00
2019-01-24T01:17:33.791Z,98616.00
2019-01-24T01:20:05.274Z,98610.00
2019-01-24T01:22:35.814Z,98620.00
2019-01-24T01:25:09.159Z,98617.00
2019-01-24T01:27:39.730Z,98626.00
2019-01-24T01:30:17.430Z,98622.00
2019-01-24T01:32:47.926Z,98630.00
2019-01-24T01:35:19.038Z,98632.00
2019-01-24T01:37:49.637Z,98628.00
2019-01-24T01:40:20.997Z,98634.00
2019-01-24T01:42:51.445Z,98633.00
2019-01-24T01:45:24.836Z,98634.00
2019-01-24T01:47:55.296Z,98635.00
2019-01-24T01:50:26.500Z,98627.00
2019-01-24T01:52:56.939Z,98631.00
2019-01-24T01:55:27.359Z,98628.00
2019-01-24T01:57:57.823Z,98635.00
2019-01-24T02:00:28.628Z,98629.00
2019-01-24T02:02:59.031Z,98634.00
2019-01-24T02:05:29.462Z,98635.00
2019-01-24T02:07:59.879Z,98631.00
2019-01-24T02:10:30.318Z,98637.00
2019-01-24T02:13:00.773Z,98637.00
2019-01-24T02:15:31.201Z,98633.00
2019-01-24T02:18:01.629Z,98634.00
2019-01-24T02:20:32.107Z,98637.00
2019-01-24T02:23:02.610Z,98643.00
2019-01-24T02:25:33.066Z,98637.00
2019-01-24T02:28:03.458Z,98641.00
2019-01-24T02:30:33.968Z,98648.00
2019-01-24T02:33:04.646Z,98649.00
2019-01-24T02:35:35.150Z,98646.00
2019-01-24T02:38:05.610Z,98652.00
2019-01-24T02:40:36.024Z,98650.00
2019-01-24T02:43:06.534Z,98648.00
2019-01-24T02:45:36.975Z,98655.00
2019-01-24T02:48:07.377Z,98662.00
2019-01-24T02:50:37.947Z,98663.00
2019-01-24T02:53:08.359Z,98668.00
2019-01-24T02:55:38.805Z,98666.00
2019-01-24T02:58:09.226Z,98665.00
2019-01-24T03:00:39.662Z,98669.00
2019-01-24T03:03:10.052Z,98670.00
2019-01-24T03:05:40.485Z,98666.00
2019-01-24T03:08:10.897Z,98664.00
2019-01-24T03:10:41.345Z,98657.00
2019-01-24T03:13:11.763Z,98663.00
2019-01-24T03:15:42.218Z,98663.00
2019-01-24T03:18:12.633Z,98661.00
2019-01-24T03:20:43.107Z,98663.00
2019-01-24T03:23:13.573Z,98662.00
2019-01-24T03:25:44.136Z,98657.00
2019-01-24T03:28:14.614Z,98668.00
2019-01-24T03:30:45.030Z,98663.00
2019-01-24T03:33:15.449Z,98664.00
2019-01-24T03:35:45.872Z,98664.00
2019-01-24T03:38:16.337Z,98672.00
2019-01-24T03:40:46.765Z,98673.00
2019-01-24T03:43:17.220Z,98674.00
2019-01-24T03:45:48.136Z,98679.00
2019-01-24T03:48:18.671Z,98676.00
2019-01-24T03:50:49.294Z,98690.00
2019-01-24T03:53:19.761Z,98688.00
2019-01-24T03:55:50.179Z,98688.00
2019-01-24T03:58:20.695Z,98692.00
2019-01-24T04:00:51.238Z,98690.00
2019-01-24T04:03:21.748Z,98695.00
2019-01-24T04:05:52.202Z,98695.00
2019-01-24T04:08:22.617Z,98696.00
2019-01-24T04:10:53.634Z,98700.00
2019-01-24T04:13:24.169Z,98697.00
2019-01-24T04:15:54.823Z,98694.00
2019-01-24T04:18:25.549Z,98694.00
2019-01-24T04:20:56.308Z,98706.00
2019-01-24T04:23:26.946Z,98699.00
2019-01-24T04:25:57.561Z,98702.00
2019-01-24T04:28:28.127Z,98708.00
2019-01-24T04:30:58.721Z,98706.00
2019-01-24T04:33:29.227Z,98709.00
2019-01-24T04:36:00.254Z,98715.00
2019-01-24T04:38:30.777Z,98702.00
2019-01-24T04:41:01.336Z,98719.00
2019-01-24T04:43:31.856Z,98713.00
2019-01-24T04:46:02.529Z,98714.00
2019-01-24T04:48:33.036Z,98718.00
2019-01-24T04:51:03.548Z,98719.00
2019-01-24T04:53:34.049Z,98731.00
2019-01-24T04:56:04.887Z,98728.00
2019-01-24T04:58:35.402Z,98724.00
2019-01-24T05:01:06.064Z,98732.00
2019-01-24T05:03:36.684Z,98731.00
2019-01-24T05:06:07.330Z,98736.00
2019-01-24T05:08:37.872Z,98730.00
2019-01-24T05:11:10.536Z,98736.00
2019-01-24T05:13:41.089Z,98742.00
2019-01-24T05:16:11.661Z,98743.00
2019-01-24T05:18:42.309Z,98749.00
2019-01-24T05:21:12.814Z,98738.00
2019-01-24T05:23:43.306Z,98738.00
2019-01-24T05:26:13.863Z,98734.00
2019-01-24T05:28:44.340Z,98750.00
2019-01-24T05:31:14.822Z,98739.00
2019-01-24T05:33:45.344Z,98758.00
2019-01-24T05:36:15.983Z,98749.00
2019-01-24T05:38:46.466Z,98752.00
2019-01-24T05:41:17.010Z,98755.00
2019-01-24T05:43:48.484Z,98748.00
2019-01-24T05:46:19.140Z,98760.00
2019-01-24T05:48:49.633Z,98766.00
2019-01-24T05:51:20.071Z,98767.00
2019-01-24T05:53:50.504Z,98765.00
2019-01-24T05:56:20.940Z,98758.00
2019-01-24T05:58:51.350Z,98781.00
2019-01-24T06:01:22.454Z,98777.00
2019-01-24T06:03:52.973Z,98783.00
2019-01-24T06:06:23.432Z,98788.00
2019-01-24T06:08:53.828Z,98793.00
2019-01-24T06:11:24.311Z,98797.00
2019-01-24T06:13:54.745Z,98804.00
2019-01-24T06:16:25.229Z,98809.00
2019-01-24T06:18:55.778Z,98806.00
2019-01-24T06:21:26.349Z,98804.00
2019-01-24T06:23:56.839Z,98809.00
2019-01-24T06:26:27.363Z,98812.00
2019-01-24T06:28:57.811Z,98807.00
2019-01-24T06:31:28.287Z,98813.00
2019-01-24T06:33:58.769Z,98816.00
2019-01-24T06:36:29.310Z,98812.00
2019-01-24T06:38:59.827Z,98812.00
2019-01-24T06:41:30.311Z,98812.00
2019-01-24T06:44:00.899Z,98823.00
2019-01-24T06:46:31.387Z,98819.00
2019-01-24T06:49:02.093Z,98815.00
2019-01-24T06:51:32.645Z,98827.00
2019-01-24T06:54:03.113Z,98814.00
2019-01-24T06:56:33.560Z,98826.00
2019-01-24T06:59:03.985Z,98821.00
2019-01-24T07:01:34.439Z,98827.00
2019-01-24T07:04:04.864Z,98832.00
2019-01-24T07:06:35.378Z,98831.00
2019-01-24T07:09:09.135Z,98831.00
2019-01-24T07:11:39.639Z,98838.00
2019-01-24T07:14:10.097Z,98834.00
2019-01-24T07:16:40.685Z,98845.00
2019-01-24T07:19:11.082Z,98837.00
2019-01-24T07:21:41.560Z,98842.00
2019-01-24T07:24:12.025Z,98856.00
2019-01-24T07:26:42.500Z,98860.00
2019-01-24T07:29:12.940Z,98854.00
2019-01-24T07:31:43.402Z,98867.00
2019-01-24T07:34:13.880Z,98873.00
2019-01-24T07:36:44.331Z,98875.00
2019-01-24T07:39:14.797Z,98866.00
2019-01-24T07:41:45.265Z,98876.00
2019-01-24T07:44:15.699Z,98877.00
2019-01-24T07:46:46.185Z,98885.00
2019-01-24T07:49:16.605Z,98887.00
2019-01-24T07:51:47.236Z,98891.00
2019-01-24T07:54:17.650Z,98895.00
2019-01-24T07:56:48.127Z,98895.00
2019-01-24T07:59:18.645Z,98890.00
2019-01-24T08:01:49.064Z,98899.00
2019-01-24T08:04:19.533Z,98893.00
2019-01-24T08:06:49.956Z,98895.00
2019-01-24T08:09:20.411Z,98898.00
2019-01-24T08:11:50.952Z,98894.00
2019-01-24T08:14:21.432Z,98898.00
2019-01-24T08:16:51.936Z,98903.00
2019-01-24T08:19:22.417Z,98895.00
2019-01-24T08:21:52.915Z,98904.00
2019-01-24T08:24:23.370Z,98901.00
2019-01-24T08:26:53.809Z,98902.00
2019-01-24T08:29:24.269Z,98908.00
2019-01-24T08:31:54.716Z,98909.00
2019-01-24T08:34:25.258Z,98915.00
2019-01-24T08:36:55.711Z,98912.00
2019-01-24T08:39:26.179Z,98910.00
2019-01-24T08:41:56.593Z,98914.00
2019-01-24T08:44:27.036Z,98918.00
2019-01-24T08:46:57.483Z,98916.00
2019-01-24T08:49:28.039Z,98922.00
2019-01-24T08:51:58.604Z,98929.00
2019-01-24T08:54:29.123Z,98930.00
2019-01-24T08:56:59.671Z,98930.00
2019-01-24T08:59:30.146Z,98924.00
2019-01-24T09:02:00.677Z,98929.00
2019-01-24T09:04:31.139Z,98922.00
2019-01-24T09:07:01.607Z,98917.00
2019-01-24T09:09:32.042Z,98923.00
2019-01-24T09:12:02.504Z,98930.00
2019-01-24T09:14:32.981Z,98931.00
2019-01-24T09:17:03.437Z,98931.00
2019-01-24T09:19:33.929Z,98934.00
2019-01-24T09:22:04.794Z,98942.00
2019-01-24T09:24:35.290Z,98938.00
2019-01-24T09:27:05.743Z,98933.00
2019-01-24T09:29:36.187Z,98949.00
2019-01-24T09:32:06.872Z,98954.00
2019-01-24T09:34:37.349Z,98947.00
2019-01-24T09:37:07.803Z,98947.00
2019-01-24T09:39:38.343Z,98949.00
2019-01-24T09:42:08.770Z,98961.00
2019-01-24T09:44:39.304Z,98955.00
2019-01-24T09:47:09.799Z,98958.00
2019-01-24T09:49:40.307Z,98957.00
2019-01-24T09:52:10.776Z,98959.00
2019-01-24T09:54:41.234Z,98965.00
2019-01-24T09:57:11.714Z,98966.00
2019-01-24T09:59:42.172Z,98969.00
2019-01-24T10:02:12.620Z,98969.00
2019-01-24T10:04:43.076Z,98976.00
2019-01-24T10:07:13.579Z,98968.00
2019-01-24T10:09:44.045Z,98964.00
2019-01-24T10:12:14.482Z,98981.00
2019-01-24T10:14:44.980Z,98970.00
2019-01-24T10:17:15.426Z,98970.00
2019-01-24T10:19:45.865Z,98974.00
2019-01-24T10:22:16.347Z,98977.00
2019-01-24T10:24:46.938Z,98973.00
2019-01-24T10:27:17.378Z,98976.00
2019-01-24T10:29:47.890Z,98965.00
2019-01-24T10:32:18.323Z,98971.00
2019-01-24T10:34:48.809Z,98969.00
2019-01-24T10:37:19.263Z,98977.00
2019-01-24T10:39:49.769Z,98975.00
2019-01-24T10:42:20.221Z,98980.00
2019-01-24T10:44:50.714Z,98977.00
2019-01-24T10:47:21.190Z,98972.00
2019-01-24T10:49:51.654Z,98981.00
2019-01-24T10:52:22.136Z,98971.00
2019-01-24T10:54:52.629Z,98970.00
2019-01-24T10:57:23.068Z,98972.00
2019-01-24T10:59:53.536Z,98983.00
2019-01-24T11:02:24.003Z,98978.00
2019-01-24T11:04:54.460Z,98980.00
2019-01-24T11:07:24.914Z,98974.00
2019-01-24T11:09:55.387Z,98970.00
2019-01-24T11:12:25.848Z,98978.00
2019-01-24T11:14:56.353Z,98981.00
2019-01-24T11:17:26.799Z,98984.00
2019-01-24T11:19:57.280Z,98981.00
2019-01-24T11:22:27.755Z,98972.00
2019-01-24T11:24:58.318Z,98968.00
2019-01-24T11:27:28.817Z,98968.00
2019-01-24T11:29:59.339Z,98964.00
2019-01-24T11:32:29.806Z,98965.00
2019-01-24T11:35:00.280Z,98965.00
2019-01-24T11:37:30.727Z,98970.00
2019-01-24T11:40:01.187Z,98963.00
2019-01-24T11:42:31.676Z,98969.00
2019-01-24T11:45:02.250Z,98957.00
2019-01-24T11:47:32.740Z,98964.00
2019-01-24T11:50:03.292Z,98965.00
2019-01-24T11:52:33.814Z,98960.00
2019-01-24T11:55:05.252Z,98960.00
2019-01-24T11:57:35.838Z,98958.00
2019-01-24T12:00:17.458Z,98954.00
2019-01-24T12:02:48.006Z,98948.00
2019-01-24T12:05:18.696Z,98965.00
2019-01-24T12:07:49.130Z,98961.00
2019-01-24T12:10:22.241Z,98956.00
2019-01-24T12:12:52.689Z,98954.00
2019-01-24T12:15:24.106Z,98955.00
2019-01-24T12:17:54.570Z,98947.00
2019-01-24T12:20:25.844Z,98955.00
2019-01-24T12:22:56.437Z,98962.00
2019-01-24T12:25:26.943Z,98955.00
2019-01-24T12:27:57.364Z,98956.00
2019-01-24T12:30:33.573Z,98960.00
2019-01-24T12:33:04.765Z,98959.00
2019-01-24T12:35:35.659Z,98965.00
2019-01-24T12:38:06.599Z,98955.00
2019-01-24T12:40:37.097Z,98954.00
2019-01-24T12:43:07.708Z,98966.00
2019-01-24T12:45:39.125Z,98958.00
2019-01-24T12:48:09.664Z,98957.00
2019-01-24T12:50:40.136Z,98962.00
2019-01-24T12:53:10.683Z,98961.00
2019-01-24T12:55:41.127Z,98967.00
2019-01-24T12:58:11.606Z,98965.00
2019-01-24T13:00:42.100Z,98968.00
2019-01-24T13:03:12.593Z,98966.00
2019-01-24T13:05:43.054Z,98959.00
2019-01-24T13:08:13.596Z,98970.00
2019-01-24T13:10:44.047Z,98962.00
2019-01-24T13:13:14.543Z,98963.00
2019-01-24T13:15:45.018Z,98966.00
2019-01-24T13:18:15.536Z,98962.00
2019-01-24T13:20:46.069Z,98963.00
2019-01-24T13:23:16.535Z,98972.00
2019-01-24T13:25:46.998Z,98957.00
2019-01-24T13:28:17.432Z,98968.00
2019-01-24T13:30:48.063Z,98965.00
2019-01-24T13:33:18.520Z,98983.00
2019-01-24T13:35:49.035Z,98977.00
2019-01-24T13:38:19.507Z,98979.00
2019-01-24T13:40:49.997Z,98984.00
2019-01-24T13:43:20.451Z,98983.00
2019-01-24T13:45:50.931Z,98968.00
2019-01-24T13:48:21.448Z,98970.00
2019-01-24T13:50:51.921Z,98986.00
2019-01-24T13:53:22.353Z,98972.00
2019-01-24T13:55:53.342Z,98971.00
2019-01-24T13:58:23.856Z,98987.00
2019-01-24T14:00:54.363Z,98979.00
2019-01-24T14:04:10.470Z,98979.00
2019-01-24T14:06:40.926Z,98983.00
2019-01-24T14:09:12.254Z,98984.00
2019-01-24T14:11:42.723Z,98973.00
2019-01-24T14:14:13.242Z,98984.00
2019-01-24T14:16:43.722Z,98981.00
2019-01-24T14:19:14.269Z,98991.00
2019-01-24T14:21:44.725Z,98987.00
2019-01-24T14:24:15.231Z,98996.00
2019-01-24T14:26:45.800Z,99000.00
2019-01-24T14:29:16.291Z,99009.00
2019-01-24T14:31:46.760Z,98999.00
2019-01-24T14:34:17.243Z,99010.00
2019-01-24T14:36:47.815Z,99005.00
2019-01-24T14:39:18.295Z,99015.00
2019-01-24T14:41:48.915Z,99009.00
2019-01-24T14:44:19.440Z,98997.00
2019-01-24T14:46:50.018Z,98998.00
2019-01-24T14:49:20.554Z,98999.00
2019-01-24T14:51:51.058Z,98999.00
2019-01-24T14:54:21.572Z,99002.00
2019-01-24T14:56:52.100Z,99010.00
2019-01-24T14:59:22.586Z,99012.00
2019-01-24T15:01:53.121Z,99013.00
2019-01-24T15:04:23.650Z,99010.00
2019-01-24T15:06:54.158Z,99014.00
2019-01-24T15:09:24.684Z,99010.00
2019-01-24T15:11:55.217Z,99014.00
2019-01-24T15:14:25.667Z,99015.00
2019-01-24T15:16:56.197Z,99017.00
2019-01-24T15:19:27.012Z,99016.00
2019-01-24T15:21:57.503Z,99018.00
2019-01-24T15:24:28.032Z,99014.00
2019-01-24T15:26:58.565Z,99021.00
2019-01-24T15:29:29.038Z,99024.00
2019-01-24T15:31:59.495Z,99024.00
2019-01-24T15:34:29.983Z,99029.00
2019-01-24T15:37:02.811Z,99035.00
2019-01-24T15:39:33.313Z,99027.00
2019-01-24T15:42:03.836Z,99038.00
2019-01-24T15:44:34.310Z,99043.00
2019-01-24T15:47:04.808Z,99041.00
2019-01-24T15:49:35.375Z,99048.00
2019-01-24T15:52:06.879Z,99051.00
2019-01-24T15:54:37.516Z,99044.00
2019-01-24T15:57:08.019Z,99053.00
2019-01-24T15:59:38.485Z,99059.00
2019-01-24T16:02:09.839Z,99059.00
2019-01-24T16:04:40.481Z,99062.00
2019-01-24T16:07:11.040Z,99059.00
2019-01-24T16:09:41.544Z,99060.00
2019-01-24T16:12:12.075Z,99069.00
2019-01-24T16:14:42.494Z,99081.00
2019-01-24T16:17:13.017Z,99083.00
2019-01-24T16:19:43.491Z,99082.00
2019-01-24T16:22:14.369Z,99089.00
2019-01-24T16:24:44.817Z,99096.00
2019-01-24T16:27:15.322Z,99102.00
2019-01-24T16:29:45.803Z,99094.00
2019-01-24T16:32:16.327Z,99100.00
2019-01-24T16:34:46.885Z,99102.00
2019-01-24T16:37:17.427Z,99107.00
2019-01-24T16:39:48.402Z,99104.00
2019-01-24T16:42:18.958Z,99104.00
2019-01-24T16:44:49.530Z,99107.00
2019-01-24T16:47:20.138Z,99109.00
2019-01-24T16:49:50.633Z,99103.00
2019-01-24T16:52:21.211Z,99103.00
2019-01-24T16:54:51.741Z,99101.00
2019-01-24T16:57:22.331Z,99103.00
2019-01-24T16:59:52.627Z,99098.00
2019-01-24T17:02:23.148Z,99107.00
2019-01-24T17:04:53.653Z,99098.00
2019-01-24T17:07:24.235Z,99102.00
2019-01-24T17:09:54.777Z,99100.00
2019-01-24T17:12:25.423Z,99106.00
2019-01-24T17:14:55.922Z,99106.00
2019-01-24T17:17:28.688Z,99113.00
2019-01-24T17:19:59.190Z,99110.00
2019-01-24T17:22:29.677Z,99122.00
2019-01-24T17:25:00.243Z,99115.00
2019-01-24T17:27:30.739Z,99120.00
2019-01-24T17:30:01.234Z,99114.00
2019-01-24T17:32:31.796Z,99119.00
2019-01-24T17:35:02.319Z,99113.00
2019-01-24T17:37:32.849Z,99108.00
2019-01-24T17:40:03.696Z,99122.00
2019-01-24T17:42:34.350Z,99125.00
2019-01-24T17:45:06.421Z,99121.00
2019-01-24T17:47:36.956Z,99138.00
2019-01-24T17:50:09.530Z,99141.00
2019-01-24T17:52:40.015Z,99133.00
2019-01-24T17:55:15.339Z,99132.00
2019-01-24T17:57:45.858Z,99135.00
2019-01-24T18:00:20.014Z,99134.00
2019-01-24T18:02:50.519Z,99133.00
2019-01-24T18:05:21.127Z,99134.00
2019-01-24T18:07:51.702Z,99132.00
2019-01-24T18:10:26.392Z,99132.00
2019-01-24T18:12:56.880Z,99129.00
2019-01-24T18:15:30.179Z,99139.00
2019-01-24T18:18:00.953Z,99147.00
2019-01-24T18:20:33.455Z,99148.00
2019-01-24T18:23:04.541Z,99150.00
2019-01-24T18:25:34.985Z,99150.00
2019-01-24T18:28:07.061Z,99161.00
2019-01-24T18:30:37.755Z,99154.00
2019-01-24T18:33:08.494Z,99160.00
2019-01-24T18:35:39.044Z,99164.00
2019-01-24T18:38:10.014Z,99170.00
2019-01-24T18:40:40.721Z,99169.00
2019-01-24T18:43:25.626Z,99166.00
2019-01-24T18:45:59.491Z,99172.00
2019-01-24T18:48:30.280Z,99181.00
2019-01-24T18:51:00.786Z,99179.00
2019-01-24T18:53:31.290Z,99187.00
2019-01-24T18:56:01.810Z,99181.00
2019-01-24T18:58:32.321Z,99173.00
2019-01-24T19:01:03.886Z,99177.00
2019-01-24T19:03:34.361Z,99171.00
2019-01-24T19:06:04.942Z,99181.00
2019-01-24T19:08:36.829Z,99175.00
2019-01-24T19:11:07.748Z,99175.00
2019-01-24T19:13:38.251Z,99181.00
2019-01-24T19:16:08.950Z,99186.00
2019-01-24T19:18:39.408Z,99195.00
2019-01-24T19:21:09.988Z,99187.00
2019-01-24T19:23:40.524Z,99188.00
2019-01-24T19:26:11.331Z,99197.00
2019-01-24T19:28:41.796Z,99186.00
2019-01-24T19:31:12.307Z,99183.00
2019-01-24T19:33:42.757Z,99189.00
2019-01-24T19:36:13.308Z,99195.00
2019-01-24T19:38:43.796Z,99205.00
2019-01-24T19:41:14.299Z,99199.00
2019-01-24T19:43:44.840Z,99214.00
2019-01-24T19:46:15.523Z,99207.00
2019-01-24T19:48:46.968Z,99204.00
2019-01-24T19:51:17.452Z,99205.00
2019-01-24T19:53:47.954Z,99208.00
2019-01-24T19:56:18.528Z,99212.00
2019-01-24T19:58:49.029Z,99215.00
2019-01-24T20:01:19.499Z,99210.00
2019-01-24T20:03:50.055Z,99220.00
2019-01-24T20:06:20.529Z,99222.00
2019-01-24T20:08:51.177Z,99224.00
2019-01-24T20:11:21.846Z,99215.00
2019-01-24T20:13:52.319Z,99226.00
2019-01-24T20:16:22.886Z,99228.00
2019-01-24T20:18:53.316Z,99236.00
2019-01-24T20:21:23.888Z,99224.00
2019-01-24T20:23:54.446Z,99232.00
2019-01-24T20:26:24.997Z,99231.00
2019-01-24T20:28:55.509Z,99243.00
2019-01-24T20:31:26.178Z,99230.00
2019-01-24T20:33:56.685Z,99239.00
2019-01-24T20:36:27.224Z,99243.00
2019-01-24T20:38:57.764Z,99248.00
2019-01-24T20:41:28.376Z,99245.00
2019-01-24T20:43:58.879Z,99250.00
2019-01-24T20:46:29.429Z,99239.00
2019-01-24T20:48:59.957Z,99238.00
2019-01-24T20:51:30.489Z,99244.00
2019-01-24T20:54:01.030Z,99242.00
2019-01-24T20:56:31.496Z,99247.00
2019-01-24T20:59:01.997Z,99247.00
2019-01-24T21:01:32.435Z,99249.00
2019-01-24T21:04:02.894Z,99243.00
2019-01-24T21:06:33.334Z,99249.00
2019-01-24T21:09:06.087Z,99251.00
2019-01-24T21:11:36.622Z,99247.00
2019-01-24T21:14:07.697Z,99259.00
2019-01-24T21:16:38.179Z,99258.00
2019-01-24T21:19:08.729Z,99253.00
2019-01-24T21:21:39.303Z,99259.00
2019-01-24T21:24:09.802Z,99257.00
2019-01-24T21:26:40.406Z,99271.00
2019-01-24T21:29:11.653Z,99261.00
2019-01-24T21:31:42.200Z,99257.00
2019-01-24T21:34:12.733Z,99264.00
2019-01-24T21:36:43.401Z,99262.00
2019-01-24T21:39:33.247Z,99155.00
2019-01-24T21:42:04.163Z,99259.00
2019-01-24T21:44:35.049Z,99263.00
2019-01-24T21:47:05.756Z,99260.00
2019-01-24T21:49:36.668Z,99255.00
2019-01-24T21:52:07.417Z,99254.00
2019-01-24T21:54:39.399Z,99262.00
2019-01-24T21:57:10.247Z,99264.00
2019-01-24T21:59:40.843Z,99262.00
2019-01-24T22:02:11.325Z,99267.00
2019-01-24T22:04:41.913Z,99264.00
2019-01-24T22:07:12.374Z,99260.00
2019-01-24T22:09:42.840Z,99269.00
2019-01-24T22:12:13.341Z,99272.00
2019-01-24T22:14:43.816Z,99273.00
2019-01-24T22:17:14.303Z,99270.00
2019-01-24T22:19:44.883Z,99277.00
2019-01-24T22:22:15.334Z,99269.00
2019-01-24T22:24:45.843Z,99263.00
2019-01-24T22:27:16.349Z,99263.00
2019-01-24T22:29:46.836Z,99265.00
2019-01-24T22:32:17.364Z,99268.00
2019-01-24T22:34:47.868Z,99269.00
2019-01-24T22:37:18.330Z,99274.00
2019-01-24T22:39:48.848Z,99267.00
2019-01-24T22:42:19.329Z,99271.00
2019-01-24T22:44:49.849Z,99275.00
2019-01-24T22:47:20.336Z,99276.00
2019-01-24T22:49:50.826Z,99277.00
2019-01-24T22:52:21.338Z,99266.00
2019-01-24T22:54:51.834Z,99257.00
2019-01-24T22:57:22.333Z,99264.00
2019-01-24T22:59:53.150Z,99260.00
2019-01-24T23:02:28.447Z,99264.00
2019-01-24T23:04:58.955Z,99267.00
2019-01-24T23:07:29.434Z,99269.00
2019-01-24T23:09:59.960Z,99265.00
2019-01-24T23:12:30.456Z,99269.00
2019-01-24T23:15:00.939Z,99269.00
2019-01-24T23:17:31.379Z,99263.00
2019-01-24T23:20:01.843Z,99256.00
2019-01-24T23:22:32.294Z,99265.00
2019-01-24T23:25:02.845Z,99262.00
2019-01-24T23:27:33.354Z,99263.00
2019-01-24T23:30:05.440Z,99250.00
2019-01-24T23:32:35.903Z,99253.00
2019-01-24T23:35:07.546Z,99260.00
2019-01-24T23:37:38.040Z,99254.00
2019-01-24T23:40:08.888Z,99265.00
2019-01-24T23:42:39.483Z,99260.00
2019-01-24T23:45:10.197Z,99257.00
2019-01-24T23:47:40.767Z,99249.00
2019-01-24T23:50:11.404Z,99254.00
2019-01-24T23:52:41.871Z,99251.00
2019-01-24T23:55:12.500Z,99251.00
2019-01-24T23:57:42.996Z,99251.00
